sensor_id;sensor_type;location;lat;lon;timestamp;pressure;altitude;pressure_sealevel;temperature;humidity
55044;BME280;54902;50.420;18.854;2023-12-14T00:00:28;99972.48;;;4.37;85.03
55044;BME280;54902;50.420;18.854;2023-12-14T00:00:59;99976.05;;;4.38;85.03
55044;BME280;54902;50.420;18.854;2023-12-14T00:01:30;99974.30;;;4.37;85.04
55044;BME280;54902;50.420;18.854;2023-12-14T00:02:01;99970.75;;;4.36;85.03
55044;BME280;54902;50.420;18.854;2023-12-14T00:02:32;99973.45;;;4.36;85.02
55044;BME280;54902;50.420;18.854;2023-12-14T00:03:03;99977.13;;;4.35;85.03
55044;BME280;54902;50.420;18.854;2023-12-14T00:03:34;99979.83;;;4.35;85.02
55044;BME280;54902;50.420;18.854;2023-12-14T00:04:05;99966.31;;;4.35;85.01
55044;BME280;54902;50.420;18.854;2023-12-14T00:04:36;99971.72;;;4.35;85.03
55044;BME280;54902;50.420;18.854;2023-12-14T00:05:07;99978.86;;;4.36;85.03
55044;BME280;54902;50.420;18.854;2023-12-14T00:05:39;99973.45;;;4.36;85.03
55044;BME280;54902;50.420;18.854;2023-12-14T00:06:10;99982.52;;;4.35;85.02
55044;BME280;54902;50.420;18.854;2023-12-14T00:06:41;99982.52;;;4.35;85.00
55044;BME280;54902;50.420;18.854;2023-12-14T00:07:12;99980.67;;;4.36;85.01
55044;BME280;54902;50.420;18.854;2023-12-14T00:07:46;99973.45;;;4.36;85.02
55044;BME280;54902;50.420;18.854;2023-12-14T00:08:17;99982.52;;;4.35;85.03
55044;BME280;54902;50.420;18.854;2023-12-14T00:08:49;99971.05;;;4.32;85.01
55044;BME280;54902;50.420;18.854;2023-12-14T00:09:20;99982.52;;;4.35;85.02
55044;BME280;54902;50.420;18.854;2023-12-14T00:09:51;99984.27;;;4.36;85.02
55044;BME280;54902;50.420;18.854;2023-12-14T00:10:22;99978.86;;;4.36;85.04
55044;BME280;54902;50.420;18.854;2023-12-14T00:10:53;99978.86;;;4.36;85.02
55044;BME280;54902;50.420;18.854;2023-12-14T00:11:24;99971.72;;;4.35;85.01
55044;BME280;54902;50.420;18.854;2023-12-14T00:11:55;99981.56;;;4.36;85.02
55044;BME280;54902;50.420;18.854;2023-12-14T00:12:26;99984.27;;;4.36;85.02
55044;BME280;54902;50.420;18.854;2023-12-14T00:12:57;99984.27;;;4.36;85.02
55044;BME280;54902;50.420;18.854;2023-12-14T00:13:28;99977.01;;;4.37;85.01
55044;BME280;54902;50.420;18.854;2023-12-14T00:13:59;99974.30;;;4.37;85.03
55044;BME280;54902;50.420;18.854;2023-12-14T00:14:30;99980.59;;;4.37;85.03
55044;BME280;54902;50.420;18.854;2023-12-14T00:15:01;99982.30;;;4.38;85.01
55044;BME280;54902;50.420;18.854;2023-12-14T00:15:32;99975.19;;;4.37;85.00
55044;BME280;54902;50.420;18.854;2023-12-14T00:16:03;99980.59;;;4.37;85.01
55044;BME280;54902;50.420;18.854;2023-12-14T00:16:35;99981.45;;;4.38;85.00
55044;BME280;54902;50.420;18.854;2023-12-14T00:17:06;99977.01;;;4.37;85.00
55044;BME280;54902;50.420;18.854;2023-12-14T00:17:37;99985.12;;;4.37;85.00
55044;BME280;54902;50.420;18.854;2023-12-14T00:18:08;99979.70;;;4.37;85.01
55044;BME280;54902;50.420;18.854;2023-12-14T00:18:39;99984.27;;;4.36;84.99
55044;BME280;54902;50.420;18.854;2023-12-14T00:19:10;99980.59;;;4.37;84.99
55044;BME280;54902;50.420;18.854;2023-12-14T00:19:41;99986.96;;;4.36;84.99
55044;BME280;54902;50.420;18.854;2023-12-14T00:20:13;99989.67;;;4.36;84.99
55044;BME280;54902;50.420;18.854;2023-12-14T00:20:45;99997.78;;;4.36;85.00
55044;BME280;54902;50.420;18.854;2023-12-14T00:21:16;99995.08;;;4.36;85.00
55044;BME280;54902;50.420;18.854;2023-12-14T00:21:47;99995.08;;;4.36;85.01
55044;BME280;54902;50.420;18.854;2023-12-14T00:22:18;99988.79;;;4.36;85.02
55044;BME280;54902;50.420;18.854;2023-12-14T00:22:49;99995.08;;;4.36;85.02
55044;BME280;54902;50.420;18.854;2023-12-14T00:23:20;99990.64;;;4.35;85.03
55044;BME280;54902;50.420;18.854;2023-12-14T00:23:54;99996.05;;;4.35;85.03
55044;BME280;54902;50.420;18.854;2023-12-14T00:24:25;99996.05;;;4.35;85.02
55044;BME280;54902;50.420;18.854;2023-12-14T00:24:56;99991.60;;;4.34;85.02
55044;BME280;54902;50.420;18.854;2023-12-14T00:25:27;100002.42;;;4.34;85.04
55044;BME280;54902;50.420;18.854;2023-12-14T00:25:58;100005.00;;;4.36;85.06
55044;BME280;54902;50.420;18.854;2023-12-14T00:26:29;100002.42;;;4.34;85.06
55044;BME280;54902;50.420;18.854;2023-12-14T00:27:00;100000.60;;;4.35;85.05
55044;BME280;54902;50.420;18.854;2023-12-14T00:27:31;99998.87;;;4.34;85.06
55044;BME280;54902;50.420;18.854;2023-12-14T00:28:02;99995.30;;;4.33;85.05
55044;BME280;54902;50.420;18.854;2023-12-14T00:28:33;100011.52;;;4.33;85.05
55044;BME280;54902;50.420;18.854;2023-12-14T00:29:04;100005.23;;;4.33;85.05
55044;BME280;54902;50.420;18.854;2023-12-14T00:29:35;100015.20;;;4.32;85.05
55044;BME280;54902;50.420;18.854;2023-12-14T00:30:07;100009.80;;;4.32;85.05
55044;BME280;54902;50.420;18.854;2023-12-14T00:30:38;100009.80;;;4.32;85.04
55044;BME280;54902;50.420;18.854;2023-12-14T00:31:10;100011.52;;;4.33;85.05
55044;BME280;54902;50.420;18.854;2023-12-14T00:31:41;100009.80;;;4.32;85.06
55044;BME280;54902;50.420;18.854;2023-12-14T00:32:12;100017.90;;;4.32;85.05
55044;BME280;54902;50.420;18.854;2023-12-14T00:32:43;100013.46;;;4.31;85.04
55044;BME280;54902;50.420;18.854;2023-12-14T00:33:14;100014.31;;;4.32;85.03
55044;BME280;54902;50.420;18.854;2023-12-14T00:33:45;100013.46;;;4.31;85.03
55044;BME280;54902;50.420;18.854;2023-12-14T00:34:16;100025.13;;;4.32;85.04
55044;BME280;54902;50.420;18.854;2023-12-14T00:34:47;100016.16;;;4.31;85.04
55044;BME280;54902;50.420;18.854;2023-12-14T00:35:19;100014.31;;;4.32;85.02
55044;BME280;54902;50.420;18.854;2023-12-14T00:35:51;100014.31;;;4.32;85.06
55044;BME280;54902;50.420;18.854;2023-12-14T00:36:22;100020.80;;;4.29;84.97
55044;BME280;54902;50.420;18.854;2023-12-14T00:36:53;100031.41;;;4.32;85.05
55044;BME280;54902;50.420;18.854;2023-12-14T00:37:24;100026.01;;;4.32;85.05
55044;BME280;54902;50.420;18.854;2023-12-14T00:37:55;100025.13;;;4.32;85.05
55044;BME280;54902;50.420;18.854;2023-12-14T00:38:26;100032.38;;;4.31;85.04
55044;BME280;54902;50.420;18.854;2023-12-14T00:38:57;100026.01;;;4.32;85.06
55044;BME280;54902;50.420;18.854;2023-12-14T00:39:29;100026.86;;;4.33;85.06
55044;BME280;54902;50.420;18.854;2023-12-14T00:40:00;100027.75;;;4.33;85.04
55044;BME280;54902;50.420;18.854;2023-12-14T00:40:30;100030.45;;;4.33;85.02
55044;BME280;54902;50.420;18.854;2023-12-14T00:41:02;100039.41;;;4.34;85.03
55044;BME280;54902;50.420;18.854;2023-12-14T00:41:33;100039.41;;;4.34;85.04
55044;BME280;54902;50.420;18.854;2023-12-14T00:42:04;100035.74;;;4.35;85.02
55044;BME280;54902;50.420;18.854;2023-12-14T00:42:35;100042.00;;;4.35;85.02
55044;BME280;54902;50.420;18.854;2023-12-14T00:43:06;100041.14;;;4.35;85.01
55044;BME280;54902;50.420;18.854;2023-12-14T00:43:37;100042.00;;;4.35;85.02
55044;BME280;54902;50.420;18.854;2023-12-14T00:44:09;100043.73;;;4.36;85.02
55044;BME280;54902;50.420;18.854;2023-12-14T00:44:46;100042.85;;;4.36;85.00
55044;BME280;54902;50.420;18.854;2023-12-14T00:45:25;100042.85;;;4.36;85.00
55044;BME280;54902;50.420;18.854;2023-12-14T00:45:59;100039.19;;;4.37;85.00
55044;BME280;54902;50.420;18.854;2023-12-14T00:46:38;100037.45;;;4.36;85.00
55044;BME280;54902;50.420;18.854;2023-12-14T00:47:09;100041.03;;;4.36;85.01
55044;BME280;54902;50.420;18.854;2023-12-14T00:47:40;100046.45;;;4.36;85.01
55044;BME280;54902;50.420;18.854;2023-12-14T00:48:11;100045.48;;;4.37;85.01
55044;BME280;54902;50.420;18.854;2023-12-14T00:48:41;100052.59;;;4.38;85.01
55044;BME280;54902;50.420;18.854;2023-12-14T00:49:13;100049.03;;;4.38;85.00
55044;BME280;54902;50.420;18.854;2023-12-14T00:49:44;100046.33;;;4.38;85.01
55044;BME280;54902;50.420;18.854;2023-12-14T00:50:15;100048.18;;;4.37;85.03
55044;BME280;54902;50.420;18.854;2023-12-14T00:50:46;100041.77;;;4.38;85.03
55044;BME280;54902;50.420;18.854;2023-12-14T00:51:17;100052.59;;;4.38;85.02
55044;BME280;54902;50.420;18.854;2023-12-14T00:51:48;100041.77;;;4.38;85.02
55044;BME280;54902;50.420;18.854;2023-12-14T00:52:19;100046.33;;;4.38;85.03
55044;BME280;54902;50.420;18.854;2023-12-14T00:52:50;100040.92;;;4.38;85.03
55044;BME280;54902;50.420;18.854;2023-12-14T00:53:21;100049.03;;;4.38;85.03
55044;BME280;54902;50.420;18.854;2023-12-14T00:53:52;100053.47;;;4.39;85.02
55044;BME280;54902;50.420;18.854;2023-12-14T00:54:23;100050.77;;;4.39;85.02
55044;BME280;54902;50.420;18.854;2023-12-14T00:54:54;100047.18;;;4.38;85.03
55044;BME280;54902;50.420;18.854;2023-12-14T00:55:25;100048.07;;;4.39;85.01
55044;BME280;54902;50.420;18.854;2023-12-14T00:55:56;100049.03;;;4.38;85.03
55044;BME280;54902;50.420;18.854;2023-12-14T00:56:27;100051.74;;;4.38;85.03
55044;BME280;54902;50.420;18.854;2023-12-14T00:56:58;100045.48;;;4.37;85.05
55044;BME280;54902;50.420;18.854;2023-12-14T00:57:30;100045.48;;;4.37;85.03
55044;BME280;54902;50.420;18.854;2023-12-14T00:58:00;100050.88;;;4.37;85.03
55044;BME280;54902;50.420;18.854;2023-12-14T00:58:31;100046.33;;;4.38;85.04
55044;BME280;54902;50.420;18.854;2023-12-14T00:59:02;100050.88;;;4.37;85.05
55044;BME280;54902;50.420;18.854;2023-12-14T00:59:33;100051.74;;;4.38;85.04
55044;BME280;54902;50.420;18.854;2023-12-14T01:00:05;100044.71;;;4.35;85.03
55044;BME280;54902;50.420;18.854;2023-12-14T01:00:36;100046.45;;;4.36;85.03
55044;BME280;54902;50.420;18.854;2023-12-14T01:01:07;100042.85;;;4.36;85.04
55044;BME280;54902;50.420;18.854;2023-12-14T01:01:38;100036.59;;;4.35;85.02
55044;BME280;54902;50.420;18.854;2023-12-14T01:02:09;100039.30;;;4.35;85.04
55044;BME280;54902;50.420;18.854;2023-12-14T01:02:40;100046.55;;;4.35;85.02
55044;BME280;54902;50.420;18.854;2023-12-14T01:03:11;100047.41;;;4.35;85.03
55044;BME280;54902;50.420;18.854;2023-12-14T01:03:42;100045.66;;;4.34;85.03
55044;BME280;54902;50.420;18.854;2023-12-14T01:04:14;100043.96;;;4.33;85.03
55044;BME280;54902;50.420;18.854;2023-12-14T01:04:45;100045.66;;;4.34;85.02
55044;BME280;54902;50.420;18.854;2023-12-14T01:05:16;100047.52;;;4.34;85.03
55044;BME280;54902;50.420;18.854;2023-12-14T01:05:47;100045.66;;;4.34;85.02
55044;BME280;54902;50.420;18.854;2023-12-14T01:06:18;100038.56;;;4.33;85.00
55044;BME280;54902;50.420;18.854;2023-12-14T01:06:49;100048.48;;;4.33;85.02
55044;BME280;54902;50.420;18.854;2023-12-14T01:07:20;100047.63;;;4.32;85.02
55044;BME280;54902;50.420;18.854;2023-12-14T01:07:51;100036.81;;;4.32;85.03
55044;BME280;54902;50.420;18.854;2023-12-14T01:08:22;100040.48;;;4.31;85.03
55044;BME280;54902;50.420;18.854;2023-12-14T01:08:53;100045.05;;;4.31;85.04
55044;BME280;54902;50.420;18.854;2023-12-14T01:09:24;100047.63;;;4.32;85.05
55044;BME280;54902;50.420;18.854;2023-12-14T01:09:55;100038.75;;;4.30;85.03
55044;BME280;54902;50.420;18.854;2023-12-14T01:10:26;100043.30;;;4.30;85.03
55044;BME280;54902;50.420;18.854;2023-12-14T01:10:57;100048.70;;;4.30;85.02
55044;BME280;54902;50.420;18.854;2023-12-14T01:11:28;100049.56;;;4.30;85.03
55044;BME280;54902;50.420;18.854;2023-12-14T01:11:59;100052.38;;;4.29;85.02
55044;BME280;54902;50.420;18.854;2023-12-14T01:12:30;100057.78;;;4.29;85.03
55044;BME280;54902;50.420;18.854;2023-12-14T01:13:01;100056.94;;;4.28;85.03
55044;BME280;54902;50.420;18.854;2023-12-14T01:13:32;100056.94;;;4.28;85.02
55044;BME280;54902;50.420;18.854;2023-12-14T01:14:03;100055.20;;;4.27;85.04
55044;BME280;54902;50.420;18.854;2023-12-14T01:14:35;100055.20;;;4.27;85.07
55044;BME280;54902;50.420;18.854;2023-12-14T01:15:06;100059.74;;;4.27;85.05
55044;BME280;54902;50.420;18.854;2023-12-14T01:15:37;100041.35;;;4.19;85.05
55044;BME280;54902;50.420;18.854;2023-12-14T01:16:08;100060.71;;;4.26;85.07
55044;BME280;54902;50.420;18.854;2023-12-14T01:16:39;100059.82;;;4.25;85.10
55044;BME280;54902;50.420;18.854;2023-12-14T01:17:11;100057.13;;;4.25;85.09
55044;BME280;54902;50.420;18.854;2023-12-14T01:17:42;100067.09;;;4.25;85.08
55044;BME280;54902;50.420;18.854;2023-12-14T01:18:13;100060.82;;;4.24;85.09
55044;BME280;54902;50.420;18.854;2023-12-14T01:18:44;100059.94;;;4.24;85.10
55044;BME280;54902;50.420;18.854;2023-12-14T01:19:15;100059.08;;;4.23;85.09
55044;BME280;54902;50.420;18.854;2023-12-14T01:19:46;100058.23;;;4.23;85.09
55044;BME280;54902;50.420;18.854;2023-12-14T01:20:17;100060.05;;;4.22;85.08
55044;BME280;54902;50.420;18.854;2023-12-14T01:20:48;100061.02;;;4.21;85.08
55044;BME280;54902;50.420;18.854;2023-12-14T01:21:19;100062.85;;;4.21;85.08
55044;BME280;54902;50.420;18.854;2023-12-14T01:21:50;100060.16;;;4.21;85.10
55044;BME280;54902;50.420;18.854;2023-12-14T01:22:21;100062.85;;;4.21;85.10
55044;BME280;54902;50.420;18.854;2023-12-14T01:22:51;100064.71;;;4.20;85.11
55044;BME280;54902;50.420;18.854;2023-12-14T01:23:22;100070.97;;;4.21;85.10
55044;BME280;54902;50.420;18.854;2023-12-14T01:23:54;100060.27;;;4.19;85.11
55044;BME280;54902;50.420;18.854;2023-12-14T01:24:24;100062.12;;;4.19;85.11
55044;BME280;54902;50.420;18.854;2023-12-14T01:24:56;100058.53;;;4.18;85.12
55044;BME280;54902;50.420;18.854;2023-12-14T01:25:27;100061.23;;;4.18;85.13
55044;BME280;54902;50.420;18.854;2023-12-14T01:25:58;100061.23;;;4.18;85.12
55044;BME280;54902;50.420;18.854;2023-12-14T01:26:29;100057.68;;;4.18;85.12
55044;BME280;54902;50.420;18.854;2023-12-14T01:27:00;100059.50;;;4.17;85.13
55044;BME280;54902;50.420;18.854;2023-12-14T01:27:31;100064.90;;;4.17;85.15
55044;BME280;54902;50.420;18.854;2023-12-14T01:28:02;100057.79;;;4.16;85.15
55044;BME280;54902;50.420;18.854;2023-12-14T01:28:33;100060.49;;;4.16;85.14
55044;BME280;54902;50.420;18.854;2023-12-14T01:29:04;100055.16;;;4.15;85.13
55044;BME280;54902;50.420;18.854;2023-12-14T01:29:35;100056.05;;;4.15;85.14
55044;BME280;54902;50.420;18.854;2023-12-14T01:30:07;100056.05;;;4.15;85.18
55044;BME280;54902;50.420;18.854;2023-12-14T01:30:39;100056.05;;;4.15;85.16
55044;BME280;54902;50.420;18.854;2023-12-14T01:31:10;100055.27;;;4.13;85.15
55044;BME280;54902;50.420;18.854;2023-12-14T01:31:41;100061.56;;;4.14;85.14
55044;BME280;54902;50.420;18.854;2023-12-14T01:32:12;100061.56;;;4.14;85.15
55044;BME280;54902;50.420;18.854;2023-12-14T01:32:42;100060.68;;;4.13;85.16
55044;BME280;54902;50.420;18.854;2023-12-14T01:33:13;100055.27;;;4.13;85.16
55044;BME280;54902;50.420;18.854;2023-12-14T01:33:45;100056.27;;;4.12;85.15
55044;BME280;54902;50.420;18.854;2023-12-14T01:34:19;100051.73;;;4.13;85.16
55044;BME280;54902;50.420;18.854;2023-12-14T01:34:50;100055.39;;;4.12;85.17
55044;BME280;54902;50.420;18.854;2023-12-14T01:35:21;100059.94;;;4.11;85.15
55044;BME280;54902;50.420;18.854;2023-12-14T01:35:52;100064.45;;;4.11;85.17
55044;BME280;54902;50.420;18.854;2023-12-14T01:36:24;100071.60;;;4.12;85.16
55044;BME280;54902;50.420;18.854;2023-12-14T01:36:56;100063.60;;;4.10;85.17
55044;BME280;54902;50.420;18.854;2023-12-14T01:37:27;100066.20;;;4.12;85.17
55044;BME280;54902;50.420;18.854;2023-12-14T01:37:58;100064.45;;;4.11;85.18
55044;BME280;54902;50.420;18.854;2023-12-14T01:38:29;100063.60;;;4.10;85.19
55044;BME280;54902;50.420;18.854;2023-12-14T01:39:00;100065.34;;;4.11;85.20
55044;BME280;54902;50.420;18.854;2023-12-14T01:39:31;100058.20;;;4.10;85.21
55044;BME280;54902;50.420;18.854;2023-12-14T01:40:03;100062.75;;;4.10;85.19
55044;BME280;54902;50.420;18.854;2023-12-14T01:40:34;100063.60;;;4.10;85.20
55044;BME280;54902;50.420;18.854;2023-12-14T01:41:05;100062.75;;;4.10;85.20
55044;BME280;54902;50.420;18.854;2023-12-14T01:41:36;100061.87;;;4.09;85.20
55044;BME280;54902;50.420;18.854;2023-12-14T01:42:07;100060.05;;;4.10;85.21
55044;BME280;54902;50.420;18.854;2023-12-14T01:42:38;100061.02;;;4.09;85.22
55044;BME280;54902;50.420;18.854;2023-12-14T01:43:09;100062.75;;;4.10;85.22
55044;BME280;54902;50.420;18.854;2023-12-14T01:43:43;100054.76;;;4.08;85.22
55044;BME280;54902;50.420;18.854;2023-12-14T01:44:14;100053.76;;;4.09;85.22
55044;BME280;54902;50.420;18.854;2023-12-14T01:44:46;100058.31;;;4.09;85.22
55044;BME280;54902;50.420;18.854;2023-12-14T01:45:17;100056.57;;;4.08;85.22
55044;BME280;54902;50.420;18.854;2023-12-14T01:45:50;100048.35;;;4.09;85.24
55044;BME280;54902;50.420;18.854;2023-12-14T01:46:21;100054.76;;;4.08;85.24
55044;BME280;54902;50.420;18.854;2023-12-14T01:46:52;100053.02;;;4.07;85.23
55044;BME280;54902;50.420;18.854;2023-12-14T01:47:23;100062.87;;;4.08;85.24
55044;BME280;54902;50.420;18.854;2023-12-14T01:47:54;100053.02;;;4.07;85.24
55044;BME280;54902;50.420;18.854;2023-12-14T01:48:25;100050.32;;;4.07;85.25
55044;BME280;54902;50.420;18.854;2023-12-14T01:48:56;100057.46;;;4.08;85.24
55044;BME280;54902;50.420;18.854;2023-12-14T01:49:27;100051.28;;;4.06;85.24
55044;BME280;54902;50.420;18.854;2023-12-14T01:49:58;100058.42;;;4.07;85.24
55044;BME280;54902;50.420;18.854;2023-12-14T01:50:29;100053.02;;;4.07;85.25
55044;BME280;54902;50.420;18.854;2023-12-14T01:51:00;100060.16;;;4.08;85.25
55044;BME280;54902;50.420;18.854;2023-12-14T01:51:31;100060.16;;;4.08;85.25
55044;BME280;54902;50.420;18.854;2023-12-14T01:52:05;100055.73;;;4.07;85.26
55044;BME280;54902;50.420;18.854;2023-12-14T01:52:37;100057.46;;;4.08;85.28
55044;BME280;54902;50.420;18.854;2023-12-14T01:53:08;100062.87;;;4.08;85.27
55044;BME280;54902;50.420;18.854;2023-12-14T01:53:39;100064.68;;;4.08;85.27
55044;BME280;54902;50.420;18.854;2023-12-14T01:54:11;100054.76;;;4.08;85.27
55044;BME280;54902;50.420;18.854;2023-12-14T01:54:42;100060.16;;;4.08;85.29
55044;BME280;54902;50.420;18.854;2023-12-14T01:55:13;100059.28;;;4.08;85.29
55044;BME280;54902;50.420;18.854;2023-12-14T01:55:44;100061.02;;;4.09;85.28
55044;BME280;54902;50.420;18.854;2023-12-14T01:56:15;100056.46;;;4.09;85.29
55044;BME280;54902;50.420;18.854;2023-12-14T01:56:46;100050.21;;;4.09;85.31
55044;BME280;54902;50.420;18.854;2023-12-14T01:57:18;100049.35;;;4.08;85.28
55044;BME280;54902;50.420;18.854;2023-12-14T01:57:49;100051.06;;;4.09;85.29
55044;BME280;54902;50.420;18.854;2023-12-14T01:58:20;100051.06;;;4.09;85.30
55044;BME280;54902;50.420;18.854;2023-12-14T01:58:51;100051.95;;;4.10;85.30
55044;BME280;54902;50.420;18.854;2023-12-14T01:59:22;100052.80;;;4.10;85.32
55044;BME280;54902;50.420;18.854;2023-12-14T01:59:54;100055.50;;;4.10;85.30
55044;BME280;54902;50.420;18.854;2023-12-14T02:00:36;100051.95;;;4.10;85.30
55044;BME280;54902;50.420;18.854;2023-12-14T02:01:21;100049.13;;;4.11;85.31
55044;BME280;54902;50.420;18.854;2023-12-14T02:01:56;100048.24;;;4.11;85.32
55044;BME280;54902;50.420;18.854;2023-12-14T02:02:27;100045.47;;;4.12;85.34
55044;BME280;54902;50.420;18.854;2023-12-14T02:02:58;100049.13;;;4.11;85.33
55044;BME280;54902;50.420;18.854;2023-12-14T02:03:29;100043.72;;;4.11;85.34
55044;BME280;54902;50.420;18.854;2023-12-14T02:04:01;100048.17;;;4.12;85.34
55044;BME280;54902;50.420;18.854;2023-12-14T02:04:32;100048.24;;;4.11;85.33
55044;BME280;54902;50.420;18.854;2023-12-14T02:05:03;100049.13;;;4.11;85.34
55044;BME280;54902;50.420;18.854;2023-12-14T02:05:34;100052.69;;;4.12;85.34
55044;BME280;54902;50.420;18.854;2023-12-14T02:06:05;100053.64;;;4.11;85.34
55044;BME280;54902;50.420;18.854;2023-12-14T02:06:37;100043.72;;;4.11;85.34
55044;BME280;54902;50.420;18.854;2023-12-14T02:07:09;100050.87;;;4.12;85.33
55044;BME280;54902;50.420;18.854;2023-12-14T02:07:40;100049.13;;;4.11;85.35
55044;BME280;54902;50.420;18.854;2023-12-14T02:08:11;100049.13;;;4.11;85.34
55044;BME280;54902;50.420;18.854;2023-12-14T02:08:42;100054.53;;;4.11;85.34
55044;BME280;54902;50.420;18.854;2023-12-14T02:09:13;100054.53;;;4.11;85.36
55044;BME280;54902;50.420;18.854;2023-12-14T02:09:44;100054.53;;;4.11;85.36
55044;BME280;54902;50.420;18.854;2023-12-14T02:10:15;100054.53;;;4.11;85.36
55044;BME280;54902;50.420;18.854;2023-12-14T02:10:46;100054.53;;;4.11;85.36
55044;BME280;54902;50.420;18.854;2023-12-14T02:11:18;100058.09;;;4.12;85.36
55044;BME280;54902;50.420;18.854;2023-12-14T02:11:49;100045.55;;;4.11;85.36
55044;BME280;54902;50.420;18.854;2023-12-14T02:12:20;100048.24;;;4.11;85.37
55044;BME280;54902;50.420;18.854;2023-12-14T02:12:51;100050.09;;;4.10;85.36
55044;BME280;54902;50.420;18.854;2023-12-14T02:13:22;100051.84;;;4.11;85.36
55044;BME280;54902;50.420;18.854;2023-12-14T02:13:54;100049.13;;;4.11;85.38
55044;BME280;54902;50.420;18.854;2023-12-14T02:14:25;100051.84;;;4.11;85.39
55044;BME280;54902;50.420;18.854;2023-12-14T02:14:57;100054.53;;;4.11;85.38
55044;BME280;54902;50.420;18.854;2023-12-14T02:15:28;100054.53;;;4.11;85.40
55044;BME280;54902;50.420;18.854;2023-12-14T02:15:59;100057.24;;;4.11;85.37
55044;BME280;54902;50.420;18.854;2023-12-14T02:16:30;100050.09;;;4.10;85.39
55044;BME280;54902;50.420;18.854;2023-12-14T02:17:02;100058.20;;;4.10;85.38
55044;BME280;54902;50.420;18.854;2023-12-14T02:17:33;100056.35;;;4.11;85.38
55044;BME280;54902;50.420;18.854;2023-12-14T02:18:04;100058.20;;;4.10;85.38
55044;BME280;54902;50.420;18.854;2023-12-14T02:18:35;100054.53;;;4.11;85.37
55044;BME280;54902;50.420;18.854;2023-12-14T02:19:06;100050.95;;;4.11;85.38
55044;BME280;54902;50.420;18.854;2023-12-14T02:19:37;100058.20;;;4.10;85.38
55044;BME280;54902;50.420;18.854;2023-12-14T02:20:09;100054.53;;;4.11;85.38
55044;BME280;54902;50.420;18.854;2023-12-14T02:20:40;100054.53;;;4.11;85.38
55044;BME280;54902;50.420;18.854;2023-12-14T02:21:11;100051.84;;;4.11;85.38
55044;BME280;54902;50.420;18.854;2023-12-14T02:21:42;100053.64;;;4.11;85.39
55044;BME280;54902;50.420;18.854;2023-12-14T02:22:13;100055.39;;;4.12;85.38
55044;BME280;54902;50.420;18.854;2023-12-14T02:22:53;100049.13;;;4.11;85.37
55044;BME280;54902;50.420;18.854;2023-12-14T02:23:25;100060.79;;;4.12;85.38
55044;BME280;54902;50.420;18.854;2023-12-14T02:23:56;100052.58;;;4.13;85.39
55044;BME280;54902;50.420;18.854;2023-12-14T02:24:27;100054.42;;;4.13;85.38
55044;BME280;54902;50.420;18.854;2023-12-14T02:24:58;100059.82;;;4.13;85.38
55044;BME280;54902;50.420;18.854;2023-12-14T02:25:29;100054.42;;;4.13;85.39
55044;BME280;54902;50.420;18.854;2023-12-14T02:26:00;100056.27;;;4.12;85.39
55044;BME280;54902;50.420;18.854;2023-12-14T02:26:31;100057.13;;;4.13;85.39
55044;BME280;54902;50.420;18.854;2023-12-14T02:27:03;100054.42;;;4.13;85.41
55044;BME280;54902;50.420;18.854;2023-12-14T02:27:34;100055.27;;;4.13;85.39
55044;BME280;54902;50.420;18.854;2023-12-14T02:28:05;100056.16;;;4.14;85.42
55044;BME280;54902;50.420;18.854;2023-12-14T02:28:36;100052.58;;;4.13;85.42
55044;BME280;54902;50.420;18.854;2023-12-14T02:29:06;100052.58;;;4.13;85.41
55044;BME280;54902;50.420;18.854;2023-12-14T02:29:37;100052.58;;;4.13;85.41
55044;BME280;54902;50.420;18.854;2023-12-14T02:30:12;100052.58;;;4.13;85.42
55044;BME280;54902;50.420;18.854;2023-12-14T02:30:43;100062.42;;;4.14;85.42
55044;BME280;54902;50.420;18.854;2023-12-14T02:31:15;100056.16;;;4.14;85.43
55044;BME280;54902;50.420;18.854;2023-12-14T02:31:46;100060.56;;;4.15;85.42
55044;BME280;54902;50.420;18.854;2023-12-14T02:32:18;100054.31;;;4.14;85.43
55044;BME280;54902;50.420;18.854;2023-12-14T02:32:49;100047.06;;;4.15;85.42
55044;BME280;54902;50.420;18.854;2023-12-14T02:33:20;100056.05;;;4.15;85.43
55044;BME280;54902;50.420;18.854;2023-12-14T02:33:51;100042.31;;;4.06;85.40
55044;BME280;54902;50.420;18.854;2023-12-14T02:34:22;100062.42;;;4.14;85.40
55044;BME280;54902;50.420;18.854;2023-12-14T02:34:55;100062.42;;;4.14;85.42
55044;BME280;54902;50.420;18.854;2023-12-14T02:35:26;100066.86;;;4.15;85.40
55044;BME280;54902;50.420;18.854;2023-12-14T02:35:57;100066.86;;;4.15;85.42
55044;BME280;54902;50.420;18.854;2023-12-14T02:36:28;100059.72;;;4.14;85.40
55044;BME280;54902;50.420;18.854;2023-12-14T02:36:59;100068.68;;;4.15;85.41
55044;BME280;54902;50.420;18.854;2023-12-14T02:37:30;100068.59;;;4.16;85.43
55044;BME280;54902;50.420;18.854;2023-12-14T02:38:02;100067.71;;;4.16;85.42
55044;BME280;54902;50.420;18.854;2023-12-14T02:38:33;100061.45;;;4.15;85.42
55044;BME280;54902;50.420;18.854;2023-12-14T02:39:04;100073.12;;;4.16;85.42
55044;BME280;54902;50.420;18.854;2023-12-14T02:39:35;100074.01;;;4.16;85.40
55044;BME280;54902;50.420;18.854;2023-12-14T02:40:07;100072.15;;;4.17;85.43
55044;BME280;54902;50.420;18.854;2023-12-14T02:40:38;100072.15;;;4.17;85.40
55044;BME280;54902;50.420;18.854;2023-12-14T02:41:10;100074.01;;;4.16;85.39
55044;BME280;54902;50.420;18.854;2023-12-14T02:41:41;100082.97;;;4.17;85.39
55044;BME280;54902;50.420;18.854;2023-12-14T02:42:12;100081.13;;;4.17;85.39
55044;BME280;54902;50.420;18.854;2023-12-14T02:42:44;100081.13;;;4.17;85.38
55044;BME280;54902;50.420;18.854;2023-12-14T02:43:15;100080.15;;;4.18;85.37
55044;BME280;54902;50.420;18.854;2023-12-14T02:43:46;100085.56;;;4.18;85.38
55044;BME280;54902;50.420;18.854;2023-12-14T02:44:17;100088.27;;;4.18;85.37
55044;BME280;54902;50.420;18.854;2023-12-14T02:44:49;100083.74;;;4.19;85.37